NCAR-RAP Real-Time Weather Data

Output produced by METARs form (08 May 2021  15:50 UTC)
found at http://weather.rap.ucar.edu/surface/
 
KSBA 081453Z 09004KT 8SM BKN015 15/11 A2996 RMK AO2 SLP144 T01500111 53015 $
KSBA 081400Z 00000KT 8SM BKN012 12/10 A2994 RMK AO2 T01220100 $
KSBA 081353Z 00000KT 6SM BR SCT012 SCT017 13/11 A2994 RMK AO2 SLP138 T01280106 $
KSBA 081328Z 02003KT 6SM BR SCT012 SCT017 11/09 A2993 RMK AO2 T01060089 $
KSBA 081320Z 00000KT 6SM BR BKN012 BKN017 11/09 A2993 RMK AO2 T01060089 $
KSBA 081253Z AUTO 00000KT 9SM CLR 11/09 A2992 RMK AO2 SLP131 T01060089 $
KSBA 081153Z AUTO 02003KT 10SM CLR 11/09 A2991 RMK AO2 SLP129 T01060089 10128 20094 53001 $
KSBA 081053Z AUTO 05003KT 10SM CLR 11/09 A2990 RMK AO2 SLP125 T01110089 $
KSBA 080953Z AUTO 04005KT 10SM CLR 11/08 A2990 RMK AO2 SLP124 T01060078 $
KSBA 080853Z AUTO 33003KT 10SM CLR 09/07 A2991 RMK AO2 SLP128 T00940072 58005 $
KSBA 080753Z AUTO 04003KT 10SM CLR 12/09 A2991 RMK AO2 SLP129 T01170094 401890106 $
KSBA 080653Z AUTO 01005KT 10SM CLR 12/09 A2993 RMK AO2 SLP134 T01220089 $
KSBA 080553Z 30004KT 9SM CLR 12/09 A2992 RMK AO2 SLP133 T01220094 10183 20111 51007 $
KSBA 080453Z 00000KT 10SM CLR 13/09 A2992 RMK AO2 SLP133 T01330094 $
KSBA 080353Z 13007KT 8SM CLR 14/11 A2991 RMK AO2 SLP128 T01440111 $
KSBA 080253Z 15006KT 8SM CLR 14/11 A2990 RMK AO2 SLP126 T01440106 56012 $